sensor_id;sensor_type;location;lat;lon;timestamp;pressure;altitude;pressure_sealevel;temperature;humidity
44131;BME280;29792;48.726;9.248;2024-02-21T00:00:18;97901.94;;;5.99;100.00
44131;BME280;29792;48.726;9.248;2024-02-21T00:02:44;97897.81;;;5.96;100.00
44131;BME280;29792;48.726;9.248;2024-02-21T00:05:10;97898.59;;;5.98;100.00
44131;BME280;29792;48.726;9.248;2024-02-21T00:07:35;97895.16;;;5.99;100.00
44131;BME280;29792;48.726;9.248;2024-02-21T00:10:00;97890.06;;;5.99;100.00
44131;BME280;29792;48.726;9.248;2024-02-21T00:12:25;97889.13;;;6.00;100.00
44131;BME280;29792;48.726;9.248;2024-02-21T00:14:51;97887.53;;;5.99;100.00
44131;BME280;29792;48.726;9.248;2024-02-21T00:17:16;97889.13;;;6.00;100.00
44131;BME280;29792;48.726;9.248;2024-02-21T00:19:41;97887.53;;;5.99;100.00
44131;BME280;29792;48.726;9.248;2024-02-21T00:22:07;97885.81;;;6.00;100.00
44131;BME280;29792;48.726;9.248;2024-02-21T00:24:33;97878.19;;;6.00;100.00
44131;BME280;29792;48.726;9.248;2024-02-21T00:26:58;97876.34;;;6.02;100.00
44131;BME280;29792;48.726;9.248;2024-02-21T00:29:23;97865.22;;;6.04;100.00
44131;BME280;29792;48.726;9.248;2024-02-21T00:31:49;97857.53;;;6.06;100.00
44131;BME280;29792;48.726;9.248;2024-02-21T00:34:14;97857.47;;;6.07;100.00
44131;BME280;29792;48.726;9.248;2024-02-21T00:36:39;97847.28;;;6.07;100.00
44131;BME280;29792;48.726;9.248;2024-02-21T00:39:05;97842.94;;;6.09;100.00
44131;BME280;29792;48.726;9.248;2024-02-21T00:41:30;97841.06;;;6.13;100.00
44131;BME280;29792;48.726;9.248;2024-02-21T00:43:55;97845.25;;;6.14;100.00
44131;BME280;29792;48.726;9.248;2024-02-21T00:46:20;97846.03;;;6.16;100.00
44131;BME280;29792;48.726;9.248;2024-02-21T00:48:46;97837.41;;;6.19;100.00
44131;BME280;29792;48.726;9.248;2024-02-21T00:51:11;97840.69;;;6.21;100.00
44131;BME280;29792;48.726;9.248;2024-02-21T00:53:36;97844.00;;;6.23;100.00
44131;BME280;29792;48.726;9.248;2024-02-21T00:56:07;97841.44;;;6.23;100.00
44131;BME280;29792;48.726;9.248;2024-02-21T00:58:32;97832.09;;;6.23;100.00
44131;BME280;29792;48.726;9.248;2024-02-21T01:00:57;97835.47;;;6.24;100.00
44131;BME280;29792;48.726;9.248;2024-02-21T01:03:22;97829.56;;;6.23;100.00
44131;BME280;29792;48.726;9.248;2024-02-21T01:05:47;97826.13;;;6.24;100.00
44131;BME280;29792;48.726;9.248;2024-02-21T01:08:13;97826.13;;;6.24;100.00
44131;BME280;29792;48.726;9.248;2024-02-21T01:10:38;97819.38;;;6.23;100.00
44131;BME280;29792;48.726;9.248;2024-02-21T01:13:03;97825.28;;;6.24;100.00
44131;BME280;29792;48.726;9.248;2024-02-21T01:15:29;97817.66;;;6.24;100.00
44131;BME280;29792;48.726;9.248;2024-02-21T01:17:54;97818.56;;;6.23;100.00
44131;BME280;29792;48.726;9.248;2024-02-21T01:20:22;97809.28;;;6.22;100.00
44131;BME280;29792;48.726;9.248;2024-02-21T01:22:47;97795.72;;;6.21;100.00
44131;BME280;29792;48.726;9.248;2024-02-21T01:25:12;97798.19;;;6.23;100.00
44131;BME280;29792;48.726;9.248;2024-02-21T01:27:38;97788.16;;;6.20;100.00
44131;BME280;29792;48.726;9.248;2024-02-21T01:30:04;97779.72;;;6.19;100.00
44131;BME280;29792;48.726;9.248;2024-02-21T01:32:29;97781.50;;;6.17;100.00
44131;BME280;29792;48.726;9.248;2024-02-21T01:34:54;97773.97;;;6.16;100.00
44131;BME280;29792;48.726;9.248;2024-02-21T01:37:20;97776.53;;;6.16;100.00
44131;BME280;29792;48.726;9.248;2024-02-21T01:39:45;97771.44;;;6.16;100.00
44131;BME280;29792;48.726;9.248;2024-02-21T01:42:10;97768.97;;;6.14;100.00
44131;BME280;29792;48.726;9.248;2024-02-21T01:44:35;97759.75;;;6.11;100.00
44131;BME280;29792;48.726;9.248;2024-02-21T01:47:03;97761.41;;;6.12;100.00
44131;BME280;29792;48.726;9.248;2024-02-21T01:49:28;97763.88;;;6.14;100.00
44131;BME280;29792;48.726;9.248;2024-02-21T01:51:54;97755.41;;;6.13;100.00
44131;BME280;29792;48.726;9.248;2024-02-21T01:54:19;97747.78;;;6.13;100.00
44131;BME280;29792;48.726;9.248;2024-02-21T01:56:46;97746.81;;;6.16;100.00
44131;BME280;29792;48.726;9.248;2024-02-21T01:59:13;97731.72;;;6.13;100.00
44131;BME280;29792;48.726;9.248;2024-02-21T02:01:40;97737.63;;;6.13;100.00
44131;BME280;29792;48.726;9.248;2024-02-21T02:04:06;97743.59;;;6.12;100.00
44131;BME280;29792;48.726;9.248;2024-02-21T02:06:32;97728.34;;;6.12;100.00
44131;BME280;29792;48.726;9.248;2024-02-21T02:08:58;97724.97;;;6.12;100.00
44131;BME280;29792;48.726;9.248;2024-02-21T02:11:23;97722.50;;;6.10;100.00
44131;BME280;29792;48.726;9.248;2024-02-21T02:13:48;97720.78;;;6.11;100.00
44131;BME280;29792;48.726;9.248;2024-02-21T02:16:14;97729.22;;;6.11;100.00
44131;BME280;29792;48.726;9.248;2024-02-21T02:18:39;97719.88;;;6.12;100.00
44131;BME280;29792;48.726;9.248;2024-02-21T02:21:10;97724.91;;;6.13;100.00
44131;BME280;29792;48.726;9.248;2024-02-21T02:23:38;97713.91;;;6.13;100.00
44131;BME280;29792;48.726;9.248;2024-02-21T02:26:04;97706.28;;;6.13;100.00
44131;BME280;29792;48.726;9.248;2024-02-21T02:28:29;97701.03;;;6.16;100.00
44131;BME280;29792;48.726;9.248;2024-02-21T02:30:54;97692.72;;;6.12;100.00
44131;BME280;29792;48.726;9.248;2024-02-21T02:33:19;97692.66;;;6.14;100.00
44131;BME280;29792;48.726;9.248;2024-02-21T02:35:45;97693.31;;;6.18;100.00
44131;BME280;29792;48.726;9.248;2024-02-21T02:38:11;97680.69;;;6.16;100.00
44131;BME280;29792;48.726;9.248;2024-02-21T02:40:38;97686.56;;;6.17;100.00
44131;BME280;29792;48.726;9.248;2024-02-21T02:43:03;97686.56;;;6.17;100.00
44131;BME280;29792;48.726;9.248;2024-02-21T02:45:28;97688.97;;;6.20;100.00
44131;BME280;29792;48.726;9.248;2024-02-21T02:47:54;97676.25;;;6.20;100.00
44131;BME280;29792;48.726;9.248;2024-02-21T02:50:20;97675.28;;;6.22;100.00
44131;BME280;29792;48.726;9.248;2024-02-21T02:52:45;97677.81;;;6.22;100.00
44131;BME280;29792;48.726;9.248;2024-02-21T02:55:11;97670.13;;;6.24;100.00
44131;BME280;29792;48.726;9.248;2024-02-21T02:57:36;97673.47;;;6.24;100.00
44131;BME280;29792;48.726;9.248;2024-02-21T03:00:02;97670.00;;;6.25;100.00
44131;BME280;29792;48.726;9.248;2024-02-21T03:02:27;97667.41;;;6.27;100.00
44131;BME280;29792;48.726;9.248;2024-02-21T03:04:53;97652.88;;;6.29;100.00
44131;BME280;29792;48.726;9.248;2024-02-21T03:07:19;97646.00;;;6.31;100.00
44131;BME280;29792;48.726;9.248;2024-02-21T03:09:44;97633.09;;;6.34;100.00
44131;BME280;29792;48.726;9.248;2024-02-21T03:12:10;97624.75;;;6.32;100.00
44131;BME280;29792;48.726;9.248;2024-02-21T03:14:36;97632.94;;;6.37;100.00
44131;BME280;29792;48.726;9.248;2024-02-21T03:17:02;97631.22;;;6.37;100.00
44131;BME280;29792;48.726;9.248;2024-02-21T03:19:27;97628.59;;;6.39;100.00
44131;BME280;29792;48.726;9.248;2024-02-21T03:21:53;97623.50;;;6.39;100.00
44131;BME280;29792;48.726;9.248;2024-02-21T03:24:19;97624.22;;;6.41;100.00
44131;BME280;29792;48.726;9.248;2024-02-21T03:26:44;97614.06;;;6.41;100.00
44131;BME280;29792;48.726;9.248;2024-02-21T03:29:11;97621.69;;;6.41;100.00
44131;BME280;29792;48.726;9.248;2024-02-21T03:31:37;97626.63;;;6.44;100.00
44131;BME280;29792;48.726;9.248;2024-02-21T03:34:02;97629.31;;;6.41;100.00
44131;BME280;29792;48.726;9.248;2024-02-21T03:36:28;97643.13;;;6.37;100.00
44131;BME280;29792;48.726;9.248;2024-02-21T03:38:56;97642.16;;;6.39;100.00
44131;BME280;29792;48.726;9.248;2024-02-21T03:41:21;97631.06;;;6.40;100.00
44131;BME280;29792;48.726;9.248;2024-02-21T03:43:47;97618.44;;;6.39;100.00
44131;BME280;29792;48.726;9.248;2024-02-21T03:46:12;97612.31;;;6.41;100.00
44131;BME280;29792;48.726;9.248;2024-02-21T03:48:37;97608.06;;;6.42;100.00
44131;BME280;29792;48.726;9.248;2024-02-21T03:51:03;97609.78;;;6.41;100.00
44131;BME280;29792;48.726;9.248;2024-02-21T03:53:28;97617.53;;;6.40;100.00
44131;BME280;29792;48.726;9.248;2024-02-21T03:55:54;97623.44;;;6.40;100.00
44131;BME280;29792;48.726;9.248;2024-02-21T03:58:20;97628.75;;;6.36;100.00
44131;BME280;29792;48.726;9.248;2024-02-21T04:00:45;97622.03;;;6.35;100.00
44131;BME280;29792;48.726;9.248;2024-02-21T04:03:10;97619.56;;;6.33;100.00
44131;BME280;29792;48.726;9.248;2024-02-21T04:05:35;97612.03;;;6.32;100.00
44131;BME280;29792;48.726;9.248;2024-02-21T04:08:04;97605.38;;;6.29;100.00
44131;BME280;29792;48.726;9.248;2024-02-21T04:10:30;97607.09;;;6.29;100.00
44131;BME280;29792;48.726;9.248;2024-02-21T04:12:55;97602.06;;;6.27;100.00
44131;BME280;29792;48.726;9.248;2024-02-21T04:15:20;97595.41;;;6.25;100.00
44131;BME280;29792;48.726;9.248;2024-02-21T04:17:45;97592.09;;;6.24;100.00
44131;BME280;29792;48.726;9.248;2024-02-21T04:20:17;97592.09;;;6.24;100.00
44131;BME280;29792;48.726;9.248;2024-02-21T04:22:45;97580.91;;;6.27;100.00
44131;BME280;29792;48.726;9.248;2024-02-21T04:25:11;97575.06;;;6.25;100.00
44131;BME280;29792;48.726;9.248;2024-02-21T04:27:38;97576.00;;;6.24;100.00
44131;BME280;29792;48.726;9.248;2024-02-21T04:30:04;97560.81;;;6.22;100.00
44131;BME280;29792;48.726;9.248;2024-02-21T04:32:29;97549.22;;;6.17;100.00
44131;BME280;29792;48.726;9.248;2024-02-21T04:34:55;97551.97;;;6.13;100.00
44131;BME280;29792;48.726;9.248;2024-02-21T04:37:20;97560.56;;;6.11;100.00
44131;BME280;29792;48.726;9.248;2024-02-21T04:39:46;97563.38;;;6.06;100.00
44131;BME280;29792;48.726;9.248;2024-02-21T04:42:11;97554.25;;;6.02;99.91
44131;BME280;29792;48.726;9.248;2024-02-21T04:44:36;97549.34;;;5.99;99.80
44131;BME280;29792;48.726;9.248;2024-02-21T04:47:03;97550.38;;;5.95;100.00
44131;BME280;29792;48.726;9.248;2024-02-21T04:49:29;97548.75;;;5.94;99.94
44131;BME280;29792;48.726;9.248;2024-02-21T04:51:54;97546.28;;;5.93;99.73
44131;BME280;29792;48.726;9.248;2024-02-21T04:54:19;97550.63;;;5.91;100.00
44131;BME280;29792;48.726;9.248;2024-02-21T04:56:45;97545.56;;;5.91;99.60
44131;BME280;29792;48.726;9.248;2024-02-21T04:59:10;97543.84;;;5.91;99.97
44131;BME280;29792;48.726;9.248;2024-02-21T05:01:35;97542.91;;;5.92;99.97
44131;BME280;29792;48.726;9.248;2024-02-21T05:04:00;97556.53;;;5.91;99.81
44131;BME280;29792;48.726;9.248;2024-02-21T05:06:26;97565.25;;;5.86;99.63
44131;BME280;29792;48.726;9.248;2024-02-21T05:08:51;97558.84;;;5.79;99.13
44131;BME280;29792;48.726;9.248;2024-02-21T05:11:16;97562.63;;;5.71;99.79
44131;BME280;29792;48.726;9.248;2024-02-21T05:13:42;97567.84;;;5.68;99.76
44131;BME280;29792;48.726;9.248;2024-02-21T05:16:07;97569.81;;;5.63;100.00
44131;BME280;29792;48.726;9.248;2024-02-21T05:18:33;97570.06;;;5.59;99.75
44131;BME280;29792;48.726;9.248;2024-02-21T05:20:58;97584.38;;;5.60;100.00
44131;BME280;29792;48.726;9.248;2024-02-21T05:23:24;97575.22;;;5.57;100.00
44131;BME280;29792;48.726;9.248;2024-02-21T05:25:49;97558.34;;;5.56;99.83
44131;BME280;29792;48.726;9.248;2024-02-21T05:28:14;97557.66;;;5.53;99.42
44131;BME280;29792;48.726;9.248;2024-02-21T05:30:39;97554.53;;;5.48;99.79
44131;BME280;29792;48.726;9.248;2024-02-21T05:33:06;97537.78;;;5.44;100.00
44131;BME280;29792;48.726;9.248;2024-02-21T05:35:32;97534.53;;;5.42;100.00
44131;BME280;29792;48.726;9.248;2024-02-21T05:37:57;97528.78;;;5.38;100.00
44131;BME280;29792;48.726;9.248;2024-02-21T05:40:23;97528.13;;;5.34;99.71
44131;BME280;29792;48.726;9.248;2024-02-21T05:42:48;97525.81;;;5.30;99.76
44131;BME280;29792;48.726;9.248;2024-02-21T05:45:13;97525.16;;;5.26;100.00
44131;BME280;29792;48.726;9.248;2024-02-21T05:47:41;97526.13;;;5.24;100.00
44131;BME280;29792;48.726;9.248;2024-02-21T05:50:06;97518.50;;;5.24;100.00
44131;BME280;29792;48.726;9.248;2024-02-21T05:52:31;97512.59;;;5.23;100.00
44131;BME280;29792;48.726;9.248;2024-02-21T05:54:57;97508.41;;;5.22;100.00
44131;BME280;29792;48.726;9.248;2024-02-21T05:57:22;97509.25;;;5.23;100.00
44131;BME280;29792;48.726;9.248;2024-02-21T05:59:47;97513.56;;;5.21;100.00
44131;BME280;29792;48.726;9.248;2024-02-21T06:02:12;97501.88;;;5.18;100.00
44131;BME280;29792;48.726;9.248;2024-02-21T06:04:38;97501.78;;;5.20;100.00
44131;BME280;29792;48.726;9.248;2024-02-21T06:07:04;97500.88;;;5.21;100.00
44131;BME280;29792;48.726;9.248;2024-02-21T06:09:29;97489.06;;;5.20;100.00
44131;BME280;29792;48.726;9.248;2024-02-21T06:11:55;97498.41;;;5.19;100.00
44131;BME280;29792;48.726;9.248;2024-02-21T06:14:20;97506.13;;;5.18;100.00
44131;BME280;29792;48.726;9.248;2024-02-21T06:16:45;97504.47;;;5.17;100.00
44131;BME280;29792;48.726;9.248;2024-02-21T06:19:11;97501.94;;;5.17;100.00
44131;BME280;29792;48.726;9.248;2024-02-21T06:21:36;97506.13;;;5.18;100.00
44131;BME280;29792;48.726;9.248;2024-02-21T06:24:02;97502.00;;;5.15;100.00
44131;BME280;29792;48.726;9.248;2024-02-21T06:26:27;97500.31;;;5.16;100.00
44131;BME280;29792;48.726;9.248;2024-02-21T06:28:53;97503.81;;;5.13;100.00
44131;BME280;29792;48.726;9.248;2024-02-21T06:31:18;97506.34;;;5.13;100.00
44131;BME280;29792;48.726;9.248;2024-02-21T06:33:43;97510.53;;;5.14;100.00
44131;BME280;29792;48.726;9.248;2024-02-21T06:36:08;97501.34;;;5.12;100.00
44131;BME280;29792;48.726;9.248;2024-02-21T06:38:34;97506.41;;;5.12;100.00
44131;BME280;29792;48.726;9.248;2024-02-21T06:40:59;97510.78;;;5.10;100.00
44131;BME280;29792;48.726;9.248;2024-02-21T06:43:26;97512.31;;;5.12;100.00
44131;BME280;29792;48.726;9.248;2024-02-21T06:45:51;97524.13;;;5.13;100.00
44131;BME280;29792;48.726;9.248;2024-02-21T06:48:17;97516.34;;;5.16;100.00
44131;BME280;29792;48.726;9.248;2024-02-21T06:50:44;97516.19;;;5.19;100.00
44131;BME280;29792;48.726;9.248;2024-02-21T06:53:09;97514.47;;;5.20;100.00
44131;BME280;29792;48.726;9.248;2024-02-21T06:55:35;97511.72;;;5.24;100.00
44131;BME280;29792;48.726;9.248;2024-02-21T06:58:00;97493.69;;;5.29;100.00
44131;BME280;29792;48.726;9.248;2024-02-21T07:00:27;97493.22;;;5.38;100.00
44131;BME280;29792;48.726;9.248;2024-02-21T07:02:52;97499.63;;;5.45;100.00
44131;BME280;29792;48.726;9.248;2024-02-21T07:05:18;97490.88;;;5.51;100.00
44131;BME280;29792;48.726;9.248;2024-02-21T07:07:43;97496.19;;;5.62;100.00
44131;BME280;29792;48.726;9.248;2024-02-21T07:10:08;97502.59;;;5.69;100.00
44131;BME280;29792;48.726;9.248;2024-02-21T07:12:34;97494.34;;;5.81;100.00
44131;BME280;29792;48.726;9.248;2024-02-21T07:15:00;97489.69;;;5.89;100.00
44131;BME280;29792;48.726;9.248;2024-02-21T07:17:26;97480.34;;;6.05;100.00
44131;BME280;29792;48.726;9.248;2024-02-21T07:19:51;97491.53;;;6.33;100.00
44131;BME280;29792;48.726;9.248;2024-02-21T07:22:16;97484.66;;;6.65;100.00
44131;BME280;29792;48.726;9.248;2024-02-21T07:24:41;97479.91;;;6.88;100.00
44131;BME280;29792;48.726;9.248;2024-02-21T07:27:07;97474.28;;;7.12;100.00
44131;BME280;29792;48.726;9.248;2024-02-21T07:29:32;97473.88;;;7.46;100.00
44131;BME280;29792;48.726;9.248;2024-02-21T07:31:57;97472.44;;;7.97;100.00
44131;BME280;29792;48.726;9.248;2024-02-21T07:34:22;97479.50;;;8.60;100.00
44131;BME280;29792;48.726;9.248;2024-02-21T07:36:48;97475.69;;;9.18;97.93
44131;BME280;29792;48.726;9.248;2024-02-21T07:39:13;97462.84;;;9.69;95.65
44131;BME280;29792;48.726;9.248;2024-02-21T07:41:38;97462.38;;;10.24;94.14
44131;BME280;29792;48.726;9.248;2024-02-21T07:44:05;97465.00;;;10.70;90.62
44131;BME280;29792;48.726;9.248;2024-02-21T07:46:30;97464.22;;;11.03;86.53
44131;BME280;29792;48.726;9.248;2024-02-21T07:48:56;97472.66;;;11.16;82.74
44131;BME280;29792;48.726;9.248;2024-02-21T07:51:21;97458.31;;;11.14;81.14
44131;BME280;29792;48.726;9.248;2024-02-21T07:53:46;97458.66;;;11.09;80.66
44131;BME280;29792;48.726;9.248;2024-02-21T07:56:12;97442.56;;;11.07;78.12
44131;BME280;29792;48.726;9.248;2024-02-21T07:58:37;97438.50;;;10.93;77.37
44131;BME280;29792;48.726;9.248;2024-02-21T08:01:03;97425.03;;;10.79;78.07
44131;BME280;29792;48.726;9.248;2024-02-21T08:03:28;97431.13;;;10.78;77.49
44131;BME280;29792;48.726;9.248;2024-02-21T08:05:54;97435.91;;;10.82;76.96
44131;BME280;29792;48.726;9.248;2024-02-21T08:08:19;97429.50;;;10.88;76.19
44131;BME280;29792;48.726;9.248;2024-02-21T08:10:47;97428.81;;;10.86;75.45
44131;BME280;29792;48.726;9.248;2024-02-21T08:13:12;97426.44;;;10.71;74.56
44131;BME280;29792;48.726;9.248;2024-02-21T08:15:37;97420.59;;;10.58;74.28
44131;BME280;29792;48.726;9.248;2024-02-21T08:18:04;97427.56;;;10.45;73.92
44131;BME280;29792;48.726;9.248;2024-02-21T08:20:30;97428.38;;;10.46;75.57
44131;BME280;29792;48.726;9.248;2024-02-21T08:22:55;97431.84;;;10.45;74.61
44131;BME280;29792;48.726;9.248;2024-02-21T08:25:20;97423.66;;;10.40;74.24
44131;BME280;29792;48.726;9.248;2024-02-21T08:27:46;97423.56;;;10.41;73.65
44131;BME280;29792;48.726;9.248;2024-02-21T08:30:11;97429.03;;;10.37;73.57
44131;BME280;29792;48.726;9.248;2024-02-21T08:32:37;97430.06;;;10.34;74.35
44131;BME280;29792;48.726;9.248;2024-02-21T08:35:02;97431.00;;;10.33;74.04
44131;BME280;29792;48.726;9.248;2024-02-21T08:37:28;97424.94;;;10.34;72.76
44131;BME280;29792;48.726;9.248;2024-02-21T08:39:53;97427.72;;;10.31;73.92
44131;BME280;29792;48.726;9.248;2024-02-21T08:42:19;97429.09;;;10.24;73.35
44131;BME280;29792;48.726;9.248;2024-02-21T08:44:44;97429.72;;;10.15;73.55
44131;BME280;29792;48.726;9.248;2024-02-21T08:47:10;97413.78;;;10.11;74.03
44131;BME280;29792;48.726;9.248;2024-02-21T08:49:36;97410.59;;;10.08;74.30
44131;BME280;29792;48.726;9.248;2024-02-21T08:52:02;97411.41;;;10.08;74.41
44131;BME280;29792;48.726;9.248;2024-02-21T08:54:28;97414.09;;;10.07;74.29
44131;BME280;29792;48.726;9.248;2024-02-21T08:56:54;97417.56;;;10.06;74.36
44131;BME280;29792;48.726;9.248;2024-02-21T08:59:20;97410.84;;;10.05;75.03
44131;BME280;29792;48.726;9.248;2024-02-21T09:01:46;97399.38;;;9.98;73.91
44131;BME280;29792;48.726;9.248;2024-02-21T09:04:11;97402.75;;;9.98;75.40
44131;BME280;29792;48.726;9.248;2024-02-21T09:06:37;97390.78;;;9.99;75.34
44131;BME280;29792;48.726;9.248;2024-02-21T09:09:06;97385.19;;;9.93;74.70
44131;BME280;29792;48.726;9.248;2024-02-21T09:11:33;97386.22;;;9.91;74.47
44131;BME280;29792;48.726;9.248;2024-02-21T09:13:58;97379.34;;;9.91;75.36
44131;BME280;29792;48.726;9.248;2024-02-21T09:16:23;97376.34;;;9.98;75.43
44131;BME280;29792;48.726;9.248;2024-02-21T09:18:49;97367.75;;;9.99;74.69
44131;BME280;29792;48.726;9.248;2024-02-21T09:21:14;97368.66;;;9.98;74.54
44131;BME280;29792;48.726;9.248;2024-02-21T09:23:39;97374.28;;;10.03;75.74
44131;BME280;29792;48.726;9.248;2024-02-21T09:26:04;97366.06;;;10.10;76.01
44131;BME280;29792;48.726;9.248;2024-02-21T09:28:30;97365.25;;;10.10;74.53
44131;BME280;29792;48.726;9.248;2024-02-21T09:30:55;97361.06;;;10.09;73.35
44131;BME280;29792;48.726;9.248;2024-02-21T09:33:20;97355.94;;;10.09;73.73
44131;BME280;29792;48.726;9.248;2024-02-21T09:35:46;97353.84;;;10.14;72.90
44131;BME280;29792;48.726;9.248;2024-02-21T09:38:12;97352.53;;;10.21;73.90
44131;BME280;29792;48.726;9.248;2024-02-21T09:40:38;97360.94;;;10.34;73.65
44131;BME280;29792;48.726;9.248;2024-02-21T09:43:04;97358.50;;;10.44;73.06
44131;BME280;29792;48.726;9.248;2024-02-21T09:45:32;97351.66;;;10.55;72.32
44131;BME280;29792;48.726;9.248;2024-02-21T09:48:25;97349.00;;;10.68;72.23
44131;BME280;29792;48.726;9.248;2024-02-21T09:50:53;97350.19;;;10.86;71.92
44131;BME280;29792;48.726;9.248;2024-02-21T09:53:20;97349.00;;;11.01;70.51
44131;BME280;29792;48.726;9.248;2024-02-21T09:55:48;97343.75;;;11.14;69.54
44131;BME280;29792;48.726;9.248;2024-02-21T09:58:13;97335.25;;;11.14;68.26
44131;BME280;29792;48.726;9.248;2024-02-21T10:00:39;97340.72;;;11.20;67.91
44131;BME280;29792;48.726;9.248;2024-02-21T10:03:04;97332.78;;;11.23;67.74
44131;BME280;29792;48.726;9.248;2024-02-21T10:05:33;97336.03;;;11.36;67.93
44131;BME280;29792;48.726;9.248;2024-02-21T10:07:59;97334.09;;;11.61;69.08
44131;BME280;29792;48.726;9.248;2024-02-21T10:10:24;97323.22;;;11.79;67.53
44131;BME280;29792;48.726;9.248;2024-02-21T10:12:51;97321.63;;;11.99;67.61
44131;BME280;29792;48.726;9.248;2024-02-21T10:15:23;97325.22;;;12.29;68.13
44131;BME280;29792;48.726;9.248;2024-02-21T10:17:49;97312.91;;;12.53;65.62
44131;BME280;29792;48.726;9.248;2024-02-21T10:20:15;97311.09;;;12.74;66.57
44131;BME280;29792;48.726;9.248;2024-02-21T10:22:41;97304.88;;;13.07;64.62
44131;BME280;29792;48.726;9.248;2024-02-21T10:25:10;97303.75;;;13.30;61.09
44131;BME280;29792;48.726;9.248;2024-02-21T10:27:37;97296.63;;;13.53;60.45
44131;BME280;29792;48.726;9.248;2024-02-21T10:30:06;97294.72;;;13.84;59.56
44131;BME280;29792;48.726;9.248;2024-02-21T10:32:32;97289.97;;;13.99;58.46
44131;BME280;29792;48.726;9.248;2024-02-21T10:35:02;97289.16;;;14.08;56.67
44131;BME280;29792;48.726;9.248;2024-02-21T10:37:29;97284.94;;;14.26;55.71
44131;BME280;29792;48.726;9.248;2024-02-21T10:39:55;97280.63;;;14.64;56.88
44131;BME280;29792;48.726;9.248;2024-02-21T10:42:21;97283.22;;;15.18;55.65
44131;BME280;29792;48.726;9.248;2024-02-21T10:44:50;97282.59;;;15.52;54.30
44131;BME280;29792;48.726;9.248;2024-02-21T10:47:17;97270.91;;;15.57;51.27
44131;BME280;29792;48.726;9.248;2024-02-21T10:49:49;97268.53;;;15.46;51.33
44131;BME280;29792;48.726;9.248;2024-02-21T10:52:46;97268.34;;;15.30;50.84
44131;BME280;29792;48.726;9.248;2024-02-21T10:55:20;97271.00;;;15.20;51.20
44131;BME280;29792;48.726;9.248;2024-02-21T10:57:49;97250.78;;;15.16;50.80
44131;BME280;29792;48.726;9.248;2024-02-21T11:00:17;97251.22;;;15.11;50.69
44131;BME280;29792;48.726;9.248;2024-02-21T11:02:43;97245.06;;;14.95;50.45
44131;BME280;29792;48.726;9.248;2024-02-21T11:05:09;97244.25;;;14.94;51.26
44131;BME280;29792;48.726;9.248;2024-02-21T11:07:37;97232.97;;;14.95;52.12
44131;BME280;29792;48.726;9.248;2024-02-21T11:10:03;97234.50;;;14.88;52.53
44131;BME280;29792;48.726;9.248;2024-02-21T11:12:32;97225.06;;;14.79;52.00
44131;BME280;29792;48.726;9.248;2024-02-21T11:15:07;97215.91;;;14.67;51.73
44131;BME280;29792;48.726;9.248;2024-02-21T11:17:33;97211.09;;;14.44;51.51
44131;BME280;29792;48.726;9.248;2024-02-21T11:19:58;97210.72;;;14.30;52.99
44131;BME280;29792;48.726;9.248;2024-02-21T11:22:25;97208.59;;;14.16;52.99
44131;BME280;29792;48.726;9.248;2024-02-21T11:24:54;97198.75;;;14.01;52.94
44131;BME280;29792;48.726;9.248;2024-02-21T11:27:22;97199.69;;;13.91;52.91
44131;BME280;29792;48.726;9.248;2024-02-21T11:29:55;97193.19;;;13.87;52.09
44131;BME280;29792;48.726;9.248;2024-02-21T11:32:21;97177.19;;;13.93;52.50
44131;BME280;29792;48.726;9.248;2024-02-21T11:35:03;97175.41;;;14.03;54.28
44131;BME280;29792;48.726;9.248;2024-02-21T11:37:30;97173.19;;;14.18;52.50
44131;BME280;29792;48.726;9.248;2024-02-21T11:39:58;97160.69;;;14.23;52.10
44131;BME280;29792;48.726;9.248;2024-02-21T11:42:27;97153.31;;;14.37;52.90
44131;BME280;29792;48.726;9.248;2024-02-21T11:44:54;97150.03;;;14.45;53.14
44131;BME280;29792;48.726;9.248;2024-02-21T11:47:22;97146.75;;;14.52;51.92
44131;BME280;29792;48.726;9.248;2024-02-21T11:49:48;97134.91;;;14.60;53.10
44131;BME280;29792;48.726;9.248;2024-02-21T11:52:23;97142.16;;;14.74;54.40
44131;BME280;29792;48.726;9.248;2024-02-21T11:54:52;97140.97;;;14.86;52.62
44131;BME280;29792;48.726;9.248;2024-02-21T11:57:18;97131.53;;;14.77;50.55
44131;BME280;29792;48.726;9.248;2024-02-21T11:59:47;97129.75;;;14.60;49.84
44131;BME280;29792;48.726;9.248;2024-02-21T12:02:15;97121.28;;;14.49;50.23
44131;BME280;29792;48.726;9.248;2024-02-21T12:04:40;97121.28;;;14.49;50.29
44131;BME280;29792;48.726;9.248;2024-02-21T12:07:06;97119.56;;;14.40;48.92
44131;BME280;29792;48.726;9.248;2024-02-21T12:09:34;97107.78;;;14.28;49.64
44131;BME280;29792;48.726;9.248;2024-02-21T12:12:02;97108.22;;;14.24;49.59
44131;BME280;29792;48.726;9.248;2024-02-21T12:14:29;97113.13;;;14.17;49.85
44131;BME280;29792;48.726;9.248;2024-02-21T12:16:55;97104.72;;;14.15;49.57
44131;BME280;29792;48.726;9.248;2024-02-21T12:19:20;97109.06;;;14.14;49.75
44131;BME280;29792;48.726;9.248;2024-02-21T12:21:48;97093.34;;;14.18;50.35
44131;BME280;29792;48.726;9.248;2024-02-21T12:24:17;97087.47;;;14.25;50.41
44131;BME280;29792;48.726;9.248;2024-02-21T12:26:45;97074.34;;;14.19;49.03
44131;BME280;29792;48.726;9.248;2024-02-21T12:29:11;97073.38;;;14.20;49.75
44131;BME280;29792;48.726;9.248;2024-02-21T12:31:37;97073.31;;;14.29;50.58
44131;BME280;29792;48.726;9.248;2024-02-21T12:34:03;97064.22;;;14.35;50.12
44131;BME280;29792;48.726;9.248;2024-02-21T12:36:29;97064.75;;;14.38;50.89
44131;BME280;29792;48.726;9.248;2024-02-21T12:38:55;97058.88;;;14.46;50.34
44131;BME280;29792;48.726;9.248;2024-02-21T12:41:20;97056.50;;;14.52;49.47
44131;BME280;29792;48.726;9.248;2024-02-21T12:43:45;97051.09;;;14.56;49.05
44131;BME280;29792;48.726;9.248;2024-02-21T12:46:10;97042.41;;;14.57;48.47
44131;BME280;29792;48.726;9.248;2024-02-21T12:48:36;97037.25;;;14.57;48.43
44131;BME280;29792;48.726;9.248;2024-02-21T12:51:01;97027.88;;;14.56;48.37
44131;BME280;29792;48.726;9.248;2024-02-21T12:53:27;97029.66;;;14.55;47.68